sensor_id;sensor_type;location;lat;lon;timestamp;P1;durP1;ratioP1;P2;durP2;ratioP2
32964;SDS011;19317;48.226;11.686;2023-10-13T00:01:36;5.33;;;3.57;;
32964;SDS011;19317;48.226;11.686;2023-10-13T00:06:27;5.00;;;3.50;;
32964;SDS011;19317;48.226;11.686;2023-10-13T00:11:18;7.43;;;3.47;;
32964;SDS011;19317;48.226;11.686;2023-10-13T00:16:09;6.47;;;3.53;;
32964;SDS011;19317;48.226;11.686;2023-10-13T00:21:00;6.80;;;3.30;;
32964;SDS011;19317;48.226;11.686;2023-10-13T00:25:52;9.83;;;3.93;;
32964;SDS011;19317;48.226;11.686;2023-10-13T00:30:43;9.10;;;3.57;;
32964;SDS011;19317;48.226;11.686;2023-10-13T00:35:34;6.93;;;4.00;;
32964;SDS011;19317;48.226;11.686;2023-10-13T00:40:25;7.33;;;3.50;;
32964;SDS011;19317;48.226;11.686;2023-10-13T00:45:16;10.80;;;4.00;;
32964;SDS011;19317;48.226;11.686;2023-10-13T00:50:07;6.00;;;4.00;;
32964;SDS011;19317;48.226;11.686;2023-10-13T00:54:59;5.37;;;3.57;;
32964;SDS011;19317;48.226;11.686;2023-10-13T00:59:50;5.63;;;3.30;;
32964;SDS011;19317;48.226;11.686;2023-10-13T01:04:42;8.00;;;3.53;;
32964;SDS011;19317;48.226;11.686;2023-10-13T01:09:39;5.83;;;3.30;;
32964;SDS011;19317;48.226;11.686;2023-10-13T01:14:30;8.70;;;3.73;;
32964;SDS011;19317;48.226;11.686;2023-10-13T01:19:21;3.80;;;3.07;;
32964;SDS011;19317;48.226;11.686;2023-10-13T01:24:13;4.87;;;3.40;;
32964;SDS011;19317;48.226;11.686;2023-10-13T01:29:04;4.27;;;3.30;;
32964;SDS011;19317;48.226;11.686;2023-10-13T01:33:55;5.97;;;3.30;;
32964;SDS011;19317;48.226;11.686;2023-10-13T01:38:47;5.47;;;3.27;;
32964;SDS011;19317;48.226;11.686;2023-10-13T01:43:38;5.73;;;3.37;;
32964;SDS011;19317;48.226;11.686;2023-10-13T01:48:29;6.17;;;3.73;;
32964;SDS011;19317;48.226;11.686;2023-10-13T01:53:20;7.93;;;3.07;;
32964;SDS011;19317;48.226;11.686;2023-10-13T01:58:11;6.73;;;3.60;;
32964;SDS011;19317;48.226;11.686;2023-10-13T02:03:03;5.77;;;3.40;;
32964;SDS011;19317;48.226;11.686;2023-10-13T02:07:54;5.17;;;3.50;;
32964;SDS011;19317;48.226;11.686;2023-10-13T02:12:44;7.60;;;3.40;;
32964;SDS011;19317;48.226;11.686;2023-10-13T02:17:35;4.77;;;3.30;;
32964;SDS011;19317;48.226;11.686;2023-10-13T02:22:26;6.33;;;3.47;;
32964;SDS011;19317;48.226;11.686;2023-10-13T02:27:17;5.60;;;3.30;;
32964;SDS011;19317;48.226;11.686;2023-10-13T02:32:08;5.20;;;3.20;;
32964;SDS011;19317;48.226;11.686;2023-10-13T02:36:59;6.37;;;3.43;;
32964;SDS011;19317;48.226;11.686;2023-10-13T02:41:50;6.23;;;3.37;;
32964;SDS011;19317;48.226;11.686;2023-10-13T02:46:41;4.07;;;3.60;;
32964;SDS011;19317;48.226;11.686;2023-10-13T02:51:32;5.37;;;3.53;;
32964;SDS011;19317;48.226;11.686;2023-10-13T02:56:23;4.30;;;3.33;;
32964;SDS011;19317;48.226;11.686;2023-10-13T03:01:14;6.07;;;3.30;;
32964;SDS011;19317;48.226;11.686;2023-10-13T03:06:04;4.30;;;3.33;;
32964;SDS011;19317;48.226;11.686;2023-10-13T03:10:55;7.43;;;3.40;;
32964;SDS011;19317;48.226;11.686;2023-10-13T03:15:46;4.53;;;3.27;;
32964;SDS011;19317;48.226;11.686;2023-10-13T03:20:38;5.53;;;3.50;;
32964;SDS011;19317;48.226;11.686;2023-10-13T03:25:30;4.37;;;3.50;;
32964;SDS011;19317;48.226;11.686;2023-10-13T03:30:21;11.93;;;7.73;;
32964;SDS011;19317;48.226;11.686;2023-10-13T03:35:12;7.90;;;5.00;;
32964;SDS011;19317;48.226;11.686;2023-10-13T03:40:04;6.23;;;3.80;;
32964;SDS011;19317;48.226;11.686;2023-10-13T03:44:55;7.90;;;3.50;;
32964;SDS011;19317;48.226;11.686;2023-10-13T03:49:45;5.60;;;3.43;;
32964;SDS011;19317;48.226;11.686;2023-10-13T03:54:36;7.80;;;3.67;;
32964;SDS011;19317;48.226;11.686;2023-10-13T03:59:27;5.33;;;3.50;;
32964;SDS011;19317;48.226;11.686;2023-10-13T04:04:18;7.07;;;3.97;;
32964;SDS011;19317;48.226;11.686;2023-10-13T04:09:12;7.23;;;3.73;;
32964;SDS011;19317;48.226;11.686;2023-10-13T04:14:03;6.47;;;3.63;;
32964;SDS011;19317;48.226;11.686;2023-10-13T04:18:54;6.33;;;3.90;;
32964;SDS011;19317;48.226;11.686;2023-10-13T04:23:45;6.07;;;4.07;;
32964;SDS011;19317;48.226;11.686;2023-10-13T04:28:36;6.57;;;3.70;;
32964;SDS011;19317;48.226;11.686;2023-10-13T04:33:31;8.87;;;4.07;;
32964;SDS011;19317;48.226;11.686;2023-10-13T04:38:22;5.63;;;3.43;;
32964;SDS011;19317;48.226;11.686;2023-10-13T04:43:13;5.97;;;3.60;;
32964;SDS011;19317;48.226;11.686;2023-10-13T04:48:04;8.30;;;3.83;;
32964;SDS011;19317;48.226;11.686;2023-10-13T04:52:55;6.73;;;3.60;;
32964;SDS011;19317;48.226;11.686;2023-10-13T04:57:46;8.53;;;4.30;;
32964;SDS011;19317;48.226;11.686;2023-10-13T05:02:38;5.80;;;3.70;;
32964;SDS011;19317;48.226;11.686;2023-10-13T05:07:29;6.50;;;3.80;;
32964;SDS011;19317;48.226;11.686;2023-10-13T05:12:19;8.20;;;4.00;;
32964;SDS011;19317;48.226;11.686;2023-10-13T05:17:10;7.00;;;3.70;;
32964;SDS011;19317;48.226;11.686;2023-10-13T05:22:01;6.80;;;3.77;;
32964;SDS011;19317;48.226;11.686;2023-10-13T05:26:52;6.70;;;3.43;;
32964;SDS011;19317;48.226;11.686;2023-10-13T05:31:43;7.83;;;3.43;;
32964;SDS011;19317;48.226;11.686;2023-10-13T05:36:34;8.23;;;3.60;;
32964;SDS011;19317;48.226;11.686;2023-10-13T05:41:25;5.03;;;3.23;;
32964;SDS011;19317;48.226;11.686;2023-10-13T05:46:16;16.70;;;3.67;;
32964;SDS011;19317;48.226;11.686;2023-10-13T05:51:07;7.87;;;3.57;;
32964;SDS011;19317;48.226;11.686;2023-10-13T05:56:01;6.17;;;3.30;;
32964;SDS011;19317;48.226;11.686;2023-10-13T06:00:52;7.27;;;3.87;;
32964;SDS011;19317;48.226;11.686;2023-10-13T06:05:43;5.33;;;3.43;;
32964;SDS011;19317;48.226;11.686;2023-10-13T06:10:34;9.50;;;3.30;;
32964;SDS011;19317;48.226;11.686;2023-10-13T06:15:25;6.07;;;3.23;;
32964;SDS011;19317;48.226;11.686;2023-10-13T06:20:16;5.70;;;3.40;;
32964;SDS011;19317;48.226;11.686;2023-10-13T06:25:07;8.53;;;3.30;;
32964;SDS011;19317;48.226;11.686;2023-10-13T06:29:58;7.93;;;3.37;;
32964;SDS011;19317;48.226;11.686;2023-10-13T06:34:49;8.67;;;3.70;;
32964;SDS011;19317;48.226;11.686;2023-10-13T06:39:40;6.33;;;3.60;;
32964;SDS011;19317;48.226;11.686;2023-10-13T06:44:31;6.07;;;3.33;;
32964;SDS011;19317;48.226;11.686;2023-10-13T06:49:21;9.43;;;3.50;;
32964;SDS011;19317;48.226;11.686;2023-10-13T06:54:12;5.83;;;3.67;;
32964;SDS011;19317;48.226;11.686;2023-10-13T06:59:03;7.33;;;3.43;;
32964;SDS011;19317;48.226;11.686;2023-10-13T07:03:54;7.07;;;3.60;;
32964;SDS011;19317;48.226;11.686;2023-10-13T07:08:46;9.80;;;3.47;;
32964;SDS011;19317;48.226;11.686;2023-10-13T07:13:37;7.57;;;3.20;;
32964;SDS011;19317;48.226;11.686;2023-10-13T07:18:28;9.03;;;4.20;;
32964;SDS011;19317;48.226;11.686;2023-10-13T07:23:19;6.10;;;3.30;;
32964;SDS011;19317;48.226;11.686;2023-10-13T07:28:09;7.70;;;3.57;;
32964;SDS011;19317;48.226;11.686;2023-10-13T07:33:01;8.63;;;3.50;;
32964;SDS011;19317;48.226;11.686;2023-10-13T07:37:52;6.77;;;3.13;;
32964;SDS011;19317;48.226;11.686;2023-10-13T07:42:43;8.57;;;3.30;;
32964;SDS011;19317;48.226;11.686;2023-10-13T07:47:34;5.13;;;3.37;;
32964;SDS011;19317;48.226;11.686;2023-10-13T07:52:25;11.00;;;4.47;;
32964;SDS011;19317;48.226;11.686;2023-10-13T07:57:16;6.27;;;3.37;;
32964;SDS011;19317;48.226;11.686;2023-10-13T08:02:07;6.30;;;3.37;;
32964;SDS011;19317;48.226;11.686;2023-10-13T08:06:58;6.53;;;3.23;;
32964;SDS011;19317;48.226;11.686;2023-10-13T08:11:49;9.90;;;3.47;;
32964;SDS011;19317;48.226;11.686;2023-10-13T08:16:40;13.90;;;3.60;;
32964;SDS011;19317;48.226;11.686;2023-10-13T08:21:30;9.53;;;3.80;;
32964;SDS011;19317;48.226;11.686;2023-10-13T08:26:22;13.23;;;4.00;;
32964;SDS011;19317;48.226;11.686;2023-10-13T08:31:13;9.00;;;3.43;;
32964;SDS011;19317;48.226;11.686;2023-10-13T08:36:04;8.83;;;3.50;;
32964;SDS011;19317;48.226;11.686;2023-10-13T08:40:58;7.67;;;3.43;;
32964;SDS011;19317;48.226;11.686;2023-10-13T08:45:49;6.57;;;3.20;;
32964;SDS011;19317;48.226;11.686;2023-10-13T08:50:45;11.23;;;3.73;;
32964;SDS011;19317;48.226;11.686;2023-10-13T08:55:36;8.90;;;3.07;;
32964;SDS011;19317;48.226;11.686;2023-10-13T09:00:27;8.27;;;3.50;;
32964;SDS011;19317;48.226;11.686;2023-10-13T09:05:18;10.50;;;3.83;;
32964;SDS011;19317;48.226;11.686;2023-10-13T09:10:09;8.13;;;3.60;;
32964;SDS011;19317;48.226;11.686;2023-10-13T09:15:00;9.03;;;3.40;;
32964;SDS011;19317;48.226;11.686;2023-10-13T09:19:52;10.97;;;3.53;;
32964;SDS011;19317;48.226;11.686;2023-10-13T09:24:43;7.43;;;3.80;;
32964;SDS011;19317;48.226;11.686;2023-10-13T09:29:33;6.10;;;3.00;;
32964;SDS011;19317;48.226;11.686;2023-10-13T09:34:24;7.93;;;3.23;;
32964;SDS011;19317;48.226;11.686;2023-10-13T09:39:15;5.37;;;3.20;;
32964;SDS011;19317;48.226;11.686;2023-10-13T09:44:07;8.07;;;3.30;;
32964;SDS011;19317;48.226;11.686;2023-10-13T09:48:58;10.07;;;3.40;;
32964;SDS011;19317;48.226;11.686;2023-10-13T09:53:51;9.33;;;3.13;;
32964;SDS011;19317;48.226;11.686;2023-10-13T09:58:50;9.00;;;3.27;;
32964;SDS011;19317;48.226;11.686;2023-10-13T10:03:45;9.27;;;3.17;;
32964;SDS011;19317;48.226;11.686;2023-10-13T10:08:36;7.43;;;2.97;;
32964;SDS011;19317;48.226;11.686;2023-10-13T10:13:35;8.57;;;3.13;;
32964;SDS011;19317;48.226;11.686;2023-10-13T10:18:29;7.83;;;3.17;;
32964;SDS011;19317;48.226;11.686;2023-10-13T10:23:27;4.97;;;2.97;;
32964;SDS011;19317;48.226;11.686;2023-10-13T10:28:18;9.73;;;3.30;;
32964;SDS011;19317;48.226;11.686;2023-10-13T10:33:09;8.40;;;3.10;;
32964;SDS011;19317;48.226;11.686;2023-10-13T10:38:10;6.93;;;3.07;;
32964;SDS011;19317;48.226;11.686;2023-10-13T10:43:02;8.40;;;2.83;;
32964;SDS011;19317;48.226;11.686;2023-10-13T10:47:53;8.70;;;3.07;;
32964;SDS011;19317;48.226;11.686;2023-10-13T10:52:43;5.57;;;2.77;;
32964;SDS011;19317;48.226;11.686;2023-10-13T10:57:34;7.10;;;3.07;;
32964;SDS011;19317;48.226;11.686;2023-10-13T11:02:31;6.13;;;2.80;;
32964;SDS011;19317;48.226;11.686;2023-10-13T11:07:23;8.30;;;3.20;;
32964;SDS011;19317;48.226;11.686;2023-10-13T11:12:14;5.93;;;2.90;;
32964;SDS011;19317;48.226;11.686;2023-10-13T11:17:05;6.80;;;3.00;;
32964;SDS011;19317;48.226;11.686;2023-10-13T11:21:56;5.80;;;2.80;;
32964;SDS011;19317;48.226;11.686;2023-10-13T11:26:48;9.77;;;2.87;;
32964;SDS011;19317;48.226;11.686;2023-10-13T11:31:38;7.07;;;2.90;;
32964;SDS011;19317;48.226;11.686;2023-10-13T11:36:29;6.63;;;3.20;;
32964;SDS011;19317;48.226;11.686;2023-10-13T11:41:20;9.13;;;3.40;;
32964;SDS011;19317;48.226;11.686;2023-10-13T11:46:14;6.83;;;3.20;;
32964;SDS011;19317;48.226;11.686;2023-10-13T11:51:06;5.87;;;2.97;;
32964;SDS011;19317;48.226;11.686;2023-10-13T11:55:57;7.27;;;2.83;;
32964;SDS011;19317;48.226;11.686;2023-10-13T12:00:48;10.27;;;3.47;;
32964;SDS011;19317;48.226;11.686;2023-10-13T12:05:39;7.13;;;3.50;;
32964;SDS011;19317;48.226;11.686;2023-10-13T12:10:30;8.00;;;3.20;;
32964;SDS011;19317;48.226;11.686;2023-10-13T12:15:20;8.57;;;3.43;;
32964;SDS011;19317;48.226;11.686;2023-10-13T12:20:11;5.63;;;3.00;;
32964;SDS011;19317;48.226;11.686;2023-10-13T12:25:02;7.33;;;3.00;;
32964;SDS011;19317;48.226;11.686;2023-10-13T12:29:53;6.20;;;2.87;;
32964;SDS011;19317;48.226;11.686;2023-10-13T12:34:44;5.63;;;2.90;;
32964;SDS011;19317;48.226;11.686;2023-10-13T12:39:35;8.00;;;3.10;;
32964;SDS011;19317;48.226;11.686;2023-10-13T12:44:26;7.07;;;3.70;;
32964;SDS011;19317;48.226;11.686;2023-10-13T12:49:17;5.33;;;3.17;;
32964;SDS011;19317;48.226;11.686;2023-10-13T12:54:08;10.07;;;3.60;;
32964;SDS011;19317;48.226;11.686;2023-10-13T12:58:59;7.57;;;2.90;;
32964;SDS011;19317;48.226;11.686;2023-10-13T13:03:50;11.83;;;4.00;;
32964;SDS011;19317;48.226;11.686;2023-10-13T13:08:41;11.77;;;2.90;;
32964;SDS011;19317;48.226;11.686;2023-10-13T13:13:31;9.23;;;2.87;;
32964;SDS011;19317;48.226;11.686;2023-10-13T13:18:22;8.57;;;3.43;;
32964;SDS011;19317;48.226;11.686;2023-10-13T13:23:13;8.47;;;2.90;;
32964;SDS011;19317;48.226;11.686;2023-10-13T13:28:04;8.80;;;3.30;;
32964;SDS011;19317;48.226;11.686;2023-10-13T13:32:55;5.87;;;3.20;;
32964;SDS011;19317;48.226;11.686;2023-10-13T13:37:46;5.20;;;2.93;;
32964;SDS011;19317;48.226;11.686;2023-10-13T13:42:37;9.43;;;3.60;;
32964;SDS011;19317;48.226;11.686;2023-10-13T13:47:28;8.98;;;3.22;;
32964;SDS011;19317;48.226;11.686;2023-10-13T13:52:19;8.80;;;3.17;;
32964;SDS011;19317;48.226;11.686;2023-10-13T13:57:10;10.65;;;3.15;;
32964;SDS011;19317;48.226;11.686;2023-10-13T14:02:01;8.35;;;3.13;;
32964;SDS011;19317;48.226;11.686;2023-10-13T14:06:52;9.25;;;2.97;;
32964;SDS011;19317;48.226;11.686;2023-10-13T14:11:43;7.07;;;3.20;;
32964;SDS011;19317;48.226;11.686;2023-10-13T14:16:33;8.35;;;4.60;;
32964;SDS011;19317;48.226;11.686;2023-10-13T14:21:24;9.07;;;3.15;;
32964;SDS011;19317;48.226;11.686;2023-10-13T14:26:16;8.55;;;3.20;;
32964;SDS011;19317;48.226;11.686;2023-10-13T14:31:07;9.45;;;3.47;;
32964;SDS011;19317;48.226;11.686;2023-10-13T14:35:57;8.98;;;3.47;;
32964;SDS011;19317;48.226;11.686;2023-10-13T14:40:55;10.40;;;3.08;;
32964;SDS011;19317;48.226;11.686;2023-10-13T14:45:46;10.02;;;3.00;;
32964;SDS011;19317;48.226;11.686;2023-10-13T14:50:39;6.63;;;3.00;;
32964;SDS011;19317;48.226;11.686;2023-10-13T14:55:30;7.82;;;3.15;;
32964;SDS011;19317;48.226;11.686;2023-10-13T15:00:21;13.38;;;3.50;;
32964;SDS011;19317;48.226;11.686;2023-10-13T15:05:11;11.02;;;3.80;;
32964;SDS011;19317;48.226;11.686;2023-10-13T15:10:02;5.57;;;3.05;;
32964;SDS011;19317;48.226;11.686;2023-10-13T15:14:55;11.38;;;3.40;;
32964;SDS011;19317;48.226;11.686;2023-10-13T15:19:45;10.10;;;3.28;;
32964;SDS011;19317;48.226;11.686;2023-10-13T15:24:36;12.43;;;3.80;;
32964;SDS011;19317;48.226;11.686;2023-10-13T15:29:27;9.30;;;3.03;;
32964;SDS011;19317;48.226;11.686;2023-10-13T15:39:12;10.70;;;3.88;;
32964;SDS011;19317;48.226;11.686;2023-10-13T15:44:03;8.45;;;3.45;;
32964;SDS011;19317;48.226;11.686;2023-10-13T15:48:54;12.27;;;3.40;;
32964;SDS011;19317;48.226;11.686;2023-10-13T15:53:45;12.85;;;4.40;;
32964;SDS011;19317;48.226;11.686;2023-10-13T15:58:39;9.65;;;5.30;;
32964;SDS011;19317;48.226;11.686;2023-10-13T16:03:30;10.10;;;5.03;;
32964;SDS011;19317;48.226;11.686;2023-10-13T16:08:21;12.77;;;4.03;;
32964;SDS011;19317;48.226;11.686;2023-10-13T16:13:12;8.20;;;3.30;;
32964;SDS011;19317;48.226;11.686;2023-10-13T16:18:03;10.80;;;3.65;;
32964;SDS011;19317;48.226;11.686;2023-10-13T16:22:55;13.43;;;9.43;;
32964;SDS011;19317;48.226;11.686;2023-10-13T16:27:45;14.05;;;8.50;;
32964;SDS011;19317;48.226;11.686;2023-10-13T16:32:36;13.23;;;6.43;;
32964;SDS011;19317;48.226;11.686;2023-10-13T16:37:27;11.80;;;5.95;;
32964;SDS011;19317;48.226;11.686;2023-10-13T16:42:18;21.17;;;10.13;;
32964;SDS011;19317;48.226;11.686;2023-10-13T16:47:09;17.67;;;8.20;;
32964;SDS011;19317;48.226;11.686;2023-10-13T16:52:00;8.83;;;3.83;;
32964;SDS011;19317;48.226;11.686;2023-10-13T16:56:51;9.17;;;3.47;;
32964;SDS011;19317;48.226;11.686;2023-10-13T17:01:42;5.90;;;3.77;;
32964;SDS011;19317;48.226;11.686;2023-10-13T17:06:32;11.70;;;4.63;;
32964;SDS011;19317;48.226;11.686;2023-10-13T17:11:23;11.20;;;4.40;;
32964;SDS011;19317;48.226;11.686;2023-10-13T17:16:15;13.17;;;8.20;;
32964;SDS011;19317;48.226;11.686;2023-10-13T17:21:25;8.00;;;5.07;;
32964;SDS011;19317;48.226;11.686;2023-10-13T17:26:16;15.03;;;7.03;;
32964;SDS011;19317;48.226;11.686;2023-10-13T17:31:07;18.97;;;11.93;;
32964;SDS011;19317;48.226;11.686;2023-10-13T17:35:58;20.87;;;10.63;;
32964;SDS011;19317;48.226;11.686;2023-10-13T17:40:49;9.93;;;6.00;;
32964;SDS011;19317;48.226;11.686;2023-10-13T17:45:40;12.70;;;6.57;;
32964;SDS011;19317;48.226;11.686;2023-10-13T17:50:30;10.60;;;5.53;;
32964;SDS011;19317;48.226;11.686;2023-10-13T17:55:21;11.10;;;5.40;;
32964;SDS011;19317;48.226;11.686;2023-10-13T18:00:12;9.27;;;5.90;;
32964;SDS011;19317;48.226;11.686;2023-10-13T18:05:03;11.13;;;4.97;;
32964;SDS011;19317;48.226;11.686;2023-10-13T18:09:54;14.30;;;10.63;;
32964;SDS011;19317;48.226;11.686;2023-10-13T18:14:45;11.20;;;5.83;;
32964;SDS011;19317;48.226;11.686;2023-10-13T18:19:36;10.57;;;4.93;;
32964;SDS011;19317;48.226;11.686;2023-10-13T18:24:27;13.20;;;9.73;;
32964;SDS011;19317;48.226;11.686;2023-10-13T18:29:18;7.60;;;5.97;;
32964;SDS011;19317;48.226;11.686;2023-10-13T18:34:09;11.70;;;4.90;;
32964;SDS011;19317;48.226;11.686;2023-10-13T18:39:00;8.60;;;4.37;;
32964;SDS011;19317;48.226;11.686;2023-10-13T18:43:51;12.80;;;4.90;;
32964;SDS011;19317;48.226;11.686;2023-10-13T18:48:42;10.60;;;6.77;;
32964;SDS011;19317;48.226;11.686;2023-10-13T18:53:34;12.40;;;6.30;;
32964;SDS011;19317;48.226;11.686;2023-10-13T18:58:25;6.77;;;5.20;;
32964;SDS011;19317;48.226;11.686;2023-10-13T19:03:16;9.37;;;4.67;;
32964;SDS011;19317;48.226;11.686;2023-10-13T19:08:07;10.07;;;6.00;;
32964;SDS011;19317;48.226;11.686;2023-10-13T19:12:57;10.93;;;8.33;;
32964;SDS011;19317;48.226;11.686;2023-10-13T19:17:48;16.93;;;10.20;;
32964;SDS011;19317;48.226;11.686;2023-10-13T19:22:39;10.23;;;6.00;;
32964;SDS011;19317;48.226;11.686;2023-10-13T19:27:30;10.10;;;5.30;;
32964;SDS011;19317;48.226;11.686;2023-10-13T19:32:21;7.60;;;5.30;;
32964;SDS011;19317;48.226;11.686;2023-10-13T19:37:12;11.73;;;5.90;;
32964;SDS011;19317;48.226;11.686;2023-10-13T19:42:03;13.67;;;5.67;;
32964;SDS011;19317;48.226;11.686;2023-10-13T19:46:54;10.37;;;6.10;;
32964;SDS011;19317;48.226;11.686;2023-10-13T19:51:44;11.03;;;5.30;;
32964;SDS011;19317;48.226;11.686;2023-10-13T19:56:35;10.77;;;5.60;;
32964;SDS011;19317;48.226;11.686;2023-10-13T20:01:26;8.13;;;5.00;;
32964;SDS011;19317;48.226;11.686;2023-10-13T20:06:17;11.33;;;5.30;;
32964;SDS011;19317;48.226;11.686;2023-10-13T20:11:08;9.40;;;5.20;;
32964;SDS011;19317;48.226;11.686;2023-10-13T20:15:59;10.20;;;5.50;;
32964;SDS011;19317;48.226;11.686;2023-10-13T20:20:50;14.37;;;5.30;;
32964;SDS011;19317;48.226;11.686;2023-10-13T20:25:41;10.07;;;5.00;;
32964;SDS011;19317;48.226;11.686;2023-10-13T20:30:32;6.73;;;5.10;;
32964;SDS011;19317;48.226;11.686;2023-10-13T20:35:23;11.37;;;5.33;;
32964;SDS011;19317;48.226;11.686;2023-10-13T20:40:14;12.07;;;4.73;;
32964;SDS011;19317;48.226;11.686;2023-10-13T20:45:05;6.67;;;5.07;;
32964;SDS011;19317;48.226;11.686;2023-10-13T20:49:56;8.97;;;4.93;;
32964;SDS011;19317;48.226;11.686;2023-10-13T20:54:47;7.30;;;4.60;;
32964;SDS011;19317;48.226;11.686;2023-10-13T20:59:38;6.80;;;4.97;;
32964;SDS011;19317;48.226;11.686;2023-10-13T21:04:28;9.10;;;4.50;;
32964;SDS011;19317;48.226;11.686;2023-10-13T21:09:19;8.23;;;4.83;;
32964;SDS011;19317;48.226;11.686;2023-10-13T21:14:10;7.50;;;4.53;;
32964;SDS011;19317;48.226;11.686;2023-10-13T21:19:01;7.00;;;4.60;;
32964;SDS011;19317;48.226;11.686;2023-10-13T21:23:52;8.87;;;5.00;;
32964;SDS011;19317;48.226;11.686;2023-10-13T21:28:43;7.93;;;5.20;;
32964;SDS011;19317;48.226;11.686;2023-10-13T21:33:35;6.13;;;4.53;;
32964;SDS011;19317;48.226;11.686;2023-10-13T21:38:25;7.20;;;4.57;;
32964;SDS011;19317;48.226;11.686;2023-10-13T21:43:16;8.00;;;4.23;;
32964;SDS011;19317;48.226;11.686;2023-10-13T21:48:07;8.03;;;4.90;;
32964;SDS011;19317;48.226;11.686;2023-10-13T21:52:58;7.57;;;4.67;;
32964;SDS011;19317;48.226;11.686;2023-10-13T21:57:50;7.97;;;4.40;;
32964;SDS011;19317;48.226;11.686;2023-10-13T22:02:41;8.00;;;4.43;;
32964;SDS011;19317;48.226;11.686;2023-10-13T22:07:32;8.67;;;4.70;;
32964;SDS011;19317;48.226;11.686;2023-10-13T22:12:23;7.03;;;4.50;;
32964;SDS011;19317;48.226;11.686;2023-10-13T22:17:13;7.77;;;4.23;;
32964;SDS011;19317;48.226;11.686;2023-10-13T22:22:04;7.30;;;4.47;;
32964;SDS011;19317;48.226;11.686;2023-10-13T22:26:55;9.33;;;4.40;;
32964;SDS011;19317;48.226;11.686;2023-10-13T22:31:46;9.03;;;7.67;;
32964;SDS011;19317;48.226;11.686;2023-10-13T22:36:37;9.43;;;6.03;;
32964;SDS011;19317;48.226;11.686;2023-10-13T22:41:29;6.73;;;4.47;;
32964;SDS011;19317;48.226;11.686;2023-10-13T22:46:20;9.03;;;5.93;;
32964;SDS011;19317;48.226;11.686;2023-10-13T22:51:11;7.23;;;4.30;;
32964;SDS011;19317;48.226;11.686;2023-10-13T22:56:02;6.40;;;4.40;;
32964;SDS011;19317;48.226;11.686;2023-10-13T23:00:53;6.30;;;4.63;;
32964;SDS011;19317;48.226;11.686;2023-10-13T23:05:44;8.30;;;4.40;;
32964;SDS011;19317;48.226;11.686;2023-10-13T23:10:35;4.93;;;3.80;;
32964;SDS011;19317;48.226;11.686;2023-10-13T23:15:26;5.03;;;3.70;;
32964;SDS011;19317;48.226;11.686;2023-10-13T23:20:17;6.97;;;4.23;;
32964;SDS011;19317;48.226;11.686;2023-10-13T23:25:08;9.07;;;5.40;;
32964;SDS011;19317;48.226;11.686;2023-10-13T23:29:59;5.87;;;3.50;;
32964;SDS011;19317;48.226;11.686;2023-10-13T23:34:50;7.43;;;3.63;;
32964;SDS011;19317;48.226;11.686;2023-10-13T23:39:41;5.93;;;3.73;;
32964;SDS011;19317;48.226;11.686;2023-10-13T23:44:31;6.90;;;3.87;;
32964;SDS011;19317;48.226;11.686;2023-10-13T23:49:22;5.77;;;3.90;;
32964;SDS011;19317;48.226;11.686;2023-10-13T23:54:13;7.17;;;3.83;;
32964;SDS011;19317;48.226;11.686;2023-10-13T23:59:04;7.53;;;3.73;;
